createdAt,value
2023-04-25T00:00:34.800Z,87718.00
2023-04-25T00:01:34.769Z,87716.00
2023-04-25T00:02:34.908Z,87716.00
2023-04-25T00:03:34.932Z,87716.00
2023-04-25T00:04:35.079Z,87716.00
2023-04-25T00:05:34.754Z,87716.00
2023-04-25T00:06:34.706Z,87718.00
2023-04-25T00:07:34.696Z,87720.00
2023-04-25T00:08:34.678Z,87720.00
2023-04-25T00:09:34.680Z,87716.00
2023-04-25T00:10:34.674Z,87718.00
2023-04-25T00:11:34.645Z,87716.00
2023-04-25T00:12:34.642Z,87714.00
2023-04-25T00:13:34.644Z,87716.00
2023-04-25T00:14:34.618Z,87712.00
2023-04-25T00:15:34.605Z,87712.00
2023-04-25T00:16:34.701Z,87710.00
2023-04-25T00:17:34.603Z,87708.00
2023-04-25T00:18:34.564Z,87708.00
2023-04-25T00:19:34.566Z,87706.00
2023-04-25T00:20:34.553Z,87706.00
2023-04-25T00:21:34.528Z,87708.00
2023-04-25T00:22:34.511Z,87708.00
2023-04-25T00:23:34.493Z,87704.00
2023-04-25T00:24:34.490Z,87704.00
2023-04-25T00:25:34.473Z,87704.00
2023-04-25T00:26:34.463Z,87704.00
2023-04-25T00:27:34.444Z,87704.00
2023-04-25T00:28:34.423Z,87704.00
2023-04-25T00:29:34.445Z,87704.00
2023-04-25T00:30:34.412Z,87704.00
2023-04-25T00:31:34.446Z,87704.00
2023-04-25T00:32:34.445Z,87697.00
2023-04-25T00:33:34.425Z,87695.00
2023-04-25T00:34:34.400Z,87697.00
2023-04-25T00:35:34.344Z,87697.00
2023-04-25T00:36:34.339Z,87697.00
2023-04-25T00:37:34.407Z,87697.00
2023-04-25T00:38:34.275Z,87697.00
2023-04-25T00:39:34.262Z,87695.00
2023-04-25T00:40:34.245Z,87693.00
2023-04-25T00:41:34.257Z,87693.00
2023-04-25T00:42:34.209Z,87695.00
2023-04-25T00:43:34.266Z,87693.00
2023-04-25T00:44:34.184Z,87695.00
2023-04-25T00:45:34.161Z,87691.00
2023-04-25T00:46:34.179Z,87695.00
2023-04-25T00:47:34.163Z,87697.00
2023-04-25T00:48:34.127Z,87695.00
2023-04-25T00:49:34.126Z,87695.00
2023-04-25T00:50:34.101Z,87693.00
2023-04-25T00:51:34.073Z,87695.00
2023-04-25T00:52:34.058Z,87691.00
2023-04-25T00:53:34.033Z,87691.00
2023-04-25T00:54:34.037Z,87691.00
2023-04-25T00:55:34.009Z,87691.00
2023-04-25T00:56:33.998Z,87690.00
2023-04-25T00:57:33.977Z,87690.00
2023-04-25T00:58:33.942Z,87688.00
2023-04-25T00:59:33.944Z,87688.00
2023-04-25T01:00:33.971Z,87686.00
2023-04-25T01:01:33.910Z,87682.00
2023-04-25T01:02:33.963Z,87682.00
2023-04-25T01:03:34.021Z,87686.00
2023-04-25T01:04:33.900Z,87682.00
2023-04-25T01:05:33.826Z,87682.00
2023-04-25T01:06:33.821Z,87682.00
2023-04-25T01:07:33.782Z,87678.00
2023-04-25T01:08:33.767Z,87682.00
2023-04-25T01:09:33.750Z,87680.00
2023-04-25T01:10:33.730Z,87686.00
2023-04-25T01:11:33.722Z,87686.00
2023-04-25T01:12:33.690Z,87684.00
2023-04-25T01:13:33.679Z,87676.00
2023-04-25T01:14:33.657Z,87676.00
2023-04-25T01:15:33.648Z,87674.00
2023-04-25T01:16:33.672Z,87678.00
2023-04-25T01:17:33.650Z,87668.00
2023-04-25T01:18:33.596Z,87666.00
2023-04-25T01:19:33.573Z,87666.00
2023-04-25T01:20:33.545Z,87668.00
2023-04-25T01:21:33.533Z,87668.00
2023-04-25T01:22:33.510Z,87670.00
2023-04-25T01:23:33.502Z,87668.00
2023-04-25T01:24:33.469Z,87666.00
2023-04-25T01:25:33.453Z,87664.00
2023-04-25T01:26:33.435Z,87664.00
2023-04-25T01:27:33.412Z,87668.00
2023-04-25T01:28:33.437Z,87666.00
2023-04-25T01:29:33.373Z,87668.00
2023-04-25T01:30:33.367Z,87670.00
2023-04-25T01:31:33.378Z,87670.00
2023-04-25T01:32:33.339Z,87668.00
2023-04-25T01:33:33.310Z,87668.00
2023-04-25T01:34:33.282Z,87668.00
2023-04-25T01:35:33.253Z,87668.00
2023-04-25T01:36:33.250Z,87666.00
2023-04-25T01:37:33.224Z,87662.00
2023-04-25T01:38:33.213Z,87662.00
2023-04-25T01:39:33.208Z,87660.00
2023-04-25T01:40:33.186Z,87656.00
2023-04-25T01:41:33.156Z,87650.00
2023-04-25T01:42:33.144Z,87648.00
2023-04-25T01:43:33.119Z,87646.00
2023-04-25T01:44:33.093Z,87646.00
2023-04-25T01:45:33.090Z,87648.00
2023-04-25T01:46:33.208Z,87648.00
2023-04-25T01:47:33.247Z,87652.00
2023-04-25T01:48:33.032Z,87650.00
2023-04-25T01:49:33.018Z,87654.00
2023-04-25T01:50:32.993Z,87656.00
2023-04-25T01:51:33.003Z,87656.00
2023-04-25T01:52:32.986Z,87662.00
2023-04-25T01:53:32.949Z,87664.00
2023-04-25T01:54:32.929Z,87662.00
2023-04-25T01:55:32.907Z,87664.00
2023-04-25T01:56:32.884Z,87664.00
2023-04-25T01:57:32.871Z,87664.00
2023-04-25T01:58:32.871Z,87662.00
2023-04-25T01:59:32.849Z,87662.00
2023-04-25T02:00:32.839Z,87662.00
2023-04-25T02:01:32.882Z,87662.00
2023-04-25T02:02:32.946Z,87662.00
2023-04-25T02:03:32.960Z,87662.00
2023-04-25T02:04:33.037Z,87662.00
2023-04-25T02:05:32.857Z,87658.00
2023-04-25T02:06:32.856Z,87662.00
2023-04-25T02:07:32.984Z,87660.00
2023-04-25T02:08:32.854Z,87662.00
2023-04-25T02:09:32.857Z,87666.00
2023-04-25T02:10:32.861Z,87666.00
2023-04-25T02:11:32.859Z,87666.00
2023-04-25T02:12:32.864Z,87668.00
2023-04-25T02:13:32.849Z,87666.00
2023-04-25T02:14:32.882Z,87664.00
2023-04-25T02:15:32.882Z,87666.00
2023-04-25T02:16:32.952Z,87668.00
2023-04-25T02:17:32.860Z,87668.00
2023-04-25T02:18:32.870Z,87670.00
2023-04-25T02:19:32.873Z,87668.00
2023-04-25T02:20:32.875Z,87668.00
2023-04-25T02:21:32.880Z,87666.00
2023-04-25T02:22:32.874Z,87664.00
2023-04-25T02:23:32.874Z,87664.00
2023-04-25T02:24:32.879Z,87662.00
2023-04-25T02:25:32.903Z,87660.00
2023-04-25T02:26:32.895Z,87658.00
2023-04-25T02:27:32.897Z,87656.00
2023-04-25T02:28:32.884Z,87654.00
2023-04-25T02:29:32.889Z,87652.00
2023-04-25T02:30:32.889Z,87652.00
2023-04-25T02:31:32.922Z,87650.00
2023-04-25T02:32:32.902Z,87650.00
2023-04-25T02:33:32.907Z,87646.00
2023-04-25T02:34:32.888Z,87648.00
2023-04-25T02:35:32.896Z,87648.00
2023-04-25T02:36:32.919Z,87648.00
2023-04-25T02:37:32.894Z,87648.00
2023-04-25T02:38:32.856Z,87650.00
2023-04-25T02:39:32.831Z,87648.00
2023-04-25T02:40:32.813Z,87646.00
2023-04-25T02:41:32.796Z,87648.00
2023-04-25T02:42:32.769Z,87648.00
2023-04-25T02:43:32.736Z,87648.00
2023-04-25T02:44:32.721Z,87648.00
2023-04-25T02:45:32.715Z,87648.00
2023-04-25T02:47:33.800Z,87650.00
2023-04-25T02:48:32.619Z,87650.00
2023-04-25T02:49:32.592Z,87650.00
2023-04-25T02:50:32.569Z,87652.00
2023-04-25T02:51:32.546Z,87650.00
2023-04-25T02:52:32.507Z,87650.00
2023-04-25T02:53:32.558Z,87652.00
2023-04-25T02:54:32.484Z,87650.00
2023-04-25T02:55:32.446Z,87650.00
2023-04-25T02:56:32.430Z,87654.00
2023-04-25T02:57:32.386Z,87654.00
2023-04-25T02:58:32.354Z,87654.00
2023-04-25T02:59:32.342Z,87656.00
2023-04-25T03:00:32.331Z,87654.00
2023-04-25T03:01:32.288Z,87652.00
2023-04-25T03:02:32.375Z,87654.00
2023-04-25T03:03:32.273Z,87654.00
2023-04-25T03:04:32.232Z,87652.00
2023-04-25T03:05:32.172Z,87650.00
2023-04-25T03:06:32.154Z,87650.00
2023-04-25T03:07:32.168Z,87648.00
2023-04-25T03:08:32.152Z,87644.00
2023-04-25T03:09:32.163Z,87648.00
2023-04-25T03:10:32.150Z,87646.00
2023-04-25T03:11:32.190Z,87644.00
2023-04-25T03:12:32.169Z,87644.00
2023-04-25T03:13:32.171Z,87646.00
2023-04-25T03:14:32.189Z,87646.00
2023-04-25T03:15:32.212Z,87648.00
2023-04-25T03:16:32.290Z,87652.00
2023-04-25T03:17:32.221Z,87650.00
2023-04-25T03:18:32.217Z,87650.00
2023-04-25T03:19:32.213Z,87650.00
2023-04-25T03:20:32.203Z,87654.00
2023-04-25T03:21:32.218Z,87652.00
2023-04-25T03:22:32.218Z,87654.00
2023-04-25T03:23:32.217Z,87654.00
2023-04-25T03:24:32.216Z,87654.00
2023-04-25T03:25:32.225Z,87654.00
2023-04-25T03:26:32.235Z,87654.00
2023-04-25T03:27:32.234Z,87654.00
2023-04-25T03:28:32.299Z,87654.00
2023-04-25T03:29:32.239Z,87654.00
2023-04-25T03:30:32.245Z,87654.00
2023-04-25T03:31:32.411Z,87654.00
2023-04-25T03:32:32.317Z,87654.00
2023-04-25T03:33:32.277Z,87652.00
2023-04-25T03:34:32.278Z,87650.00
2023-04-25T03:35:32.272Z,87650.00
2023-04-25T03:36:32.313Z,87650.00
2023-04-25T03:37:32.293Z,87648.00
2023-04-25T03:38:32.281Z,87646.00
2023-04-25T03:39:32.265Z,87642.00
2023-04-25T03:40:32.265Z,87642.00
2023-04-25T03:41:32.234Z,87640.00
2023-04-25T03:42:32.183Z,87640.00
2023-04-25T03:43:32.164Z,87640.00
2023-04-25T03:44:32.118Z,87640.00
2023-04-25T03:45:32.187Z,87640.00
2023-04-25T03:46:32.102Z,87640.00
2023-04-25T03:47:32.086Z,87640.00
2023-04-25T03:48:32.027Z,87638.00
2023-04-25T03:49:31.992Z,87638.00
2023-04-25T03:50:31.979Z,87638.00
2023-04-25T03:51:31.970Z,87642.00
2023-04-25T03:52:31.931Z,87640.00
2023-04-25T03:53:31.975Z,87644.00
2023-04-25T03:54:31.897Z,87640.00
2023-04-25T03:55:31.861Z,87640.00
2023-04-25T03:56:31.855Z,87640.00
2023-04-25T03:57:31.848Z,87638.00
2023-04-25T03:58:31.852Z,87635.00
2023-04-25T03:59:31.871Z,87635.00
2023-04-25T04:00:31.873Z,87633.00
2023-04-25T04:01:31.893Z,87631.00
2023-04-25T04:02:31.990Z,87633.00
2023-04-25T04:03:32.019Z,87635.00
2023-04-25T04:04:32.137Z,87635.00
2023-04-25T04:05:31.957Z,87635.00
2023-04-25T04:06:31.917Z,87636.00
2023-04-25T04:07:31.916Z,87636.00
2023-04-25T04:08:31.940Z,87635.00
2023-04-25T04:09:31.918Z,87636.00
2023-04-25T04:10:31.916Z,87636.00
2023-04-25T04:11:31.938Z,87635.00
2023-04-25T04:12:31.945Z,87638.00
2023-04-25T04:13:31.940Z,87638.00
2023-04-25T04:14:31.962Z,87638.00
2023-04-25T04:15:31.952Z,87640.00
2023-04-25T04:16:33.956Z,87640.00
2023-04-25T04:17:32.135Z,87638.00
2023-04-25T04:18:32.103Z,87640.00
2023-04-25T04:19:32.110Z,87638.00
2023-04-25T04:20:32.108Z,87636.00
2023-04-25T04:21:32.113Z,87638.00
2023-04-25T04:22:32.128Z,87640.00
2023-04-25T04:23:32.119Z,87640.00
2023-04-25T04:24:32.128Z,87644.00
2023-04-25T04:25:32.136Z,87642.00
2023-04-25T04:26:32.106Z,87642.00
2023-04-25T04:27:32.089Z,87640.00
2023-04-25T04:28:32.098Z,87642.00
2023-04-25T04:29:32.054Z,87640.00
2023-04-25T04:30:32.102Z,87638.00
2023-04-25T04:31:32.072Z,87638.00
2023-04-25T04:32:32.016Z,87636.00
2023-04-25T04:33:32.007Z,87638.00
2023-04-25T04:34:31.967Z,87636.00
2023-04-25T04:35:31.928Z,87638.00
2023-04-25T04:36:31.937Z,87638.00
2023-04-25T04:37:31.899Z,87638.00
2023-04-25T04:38:31.883Z,87636.00
2023-04-25T04:39:31.856Z,87638.00
2023-04-25T04:40:31.835Z,87638.00
2023-04-25T04:41:31.843Z,87636.00
2023-04-25T04:42:31.829Z,87635.00
2023-04-25T04:43:31.791Z,87635.00
2023-04-25T04:44:31.770Z,87631.00
2023-04-25T04:45:31.730Z,87635.00
2023-04-25T04:46:31.775Z,87635.00
2023-04-25T04:47:31.726Z,87635.00
2023-04-25T04:48:31.677Z,87636.00
2023-04-25T04:49:31.658Z,87635.00
2023-04-25T04:50:31.644Z,87638.00
2023-04-25T04:51:31.640Z,87638.00
2023-04-25T04:52:31.606Z,87638.00
2023-04-25T04:53:31.587Z,87638.00
2023-04-25T04:54:31.571Z,87635.00
2023-04-25T04:55:31.586Z,87636.00
2023-04-25T04:56:31.563Z,87636.00
2023-04-25T04:57:31.525Z,87635.00
2023-04-25T04:58:31.511Z,87635.00
2023-04-25T04:59:31.499Z,87633.00
2023-04-25T05:00:31.545Z,87633.00
2023-04-25T05:01:31.462Z,87635.00
2023-04-25T05:02:31.575Z,87635.00
2023-04-25T05:03:31.685Z,87633.00
2023-04-25T05:04:31.545Z,87631.00
2023-04-25T05:05:31.400Z,87631.00
2023-04-25T05:06:31.389Z,87633.00
2023-04-25T05:07:31.350Z,87629.00
2023-04-25T05:08:31.317Z,87629.00
2023-04-25T05:09:31.307Z,87629.00
2023-04-25T05:10:31.291Z,87629.00
2023-04-25T05:11:31.267Z,87627.00
2023-04-25T05:12:31.258Z,87625.00
2023-04-25T05:13:31.237Z,87629.00
2023-04-25T05:14:31.243Z,87625.00
2023-04-25T05:15:31.219Z,87627.00
2023-04-25T05:16:31.222Z,87627.00
2023-04-25T05:17:31.220Z,87627.00
2023-04-25T05:18:31.154Z,87623.00
2023-04-25T05:19:31.136Z,87623.00
2023-04-25T05:20:31.139Z,87627.00
2023-04-25T05:21:31.114Z,87627.00
2023-04-25T05:22:31.100Z,87627.00
2023-04-25T05:23:32.596Z,87629.00
2023-04-25T05:24:31.053Z,87629.00
2023-04-25T05:25:31.066Z,87625.00
2023-04-25T05:26:31.040Z,87629.00
2023-04-25T05:27:31.027Z,87627.00
2023-04-25T05:28:31.008Z,87627.00
2023-04-25T05:29:30.995Z,87629.00
2023-04-25T05:30:30.985Z,87631.00
2023-04-25T05:31:31.012Z,87629.00
2023-04-25T05:32:30.973Z,87625.00
2023-04-25T05:33:30.944Z,87627.00
2023-04-25T05:34:30.925Z,87623.00
2023-04-25T05:35:30.944Z,87621.00
2023-04-25T05:36:30.935Z,87625.00
2023-04-25T05:37:30.953Z,87621.00
2023-04-25T05:38:33.244Z,87619.00
2023-04-25T05:39:30.837Z,87615.00
2023-04-25T05:40:30.821Z,87615.00
2023-04-25T05:41:30.794Z,87615.00
2023-04-25T05:42:30.909Z,87617.00
2023-04-25T05:43:30.770Z,87617.00
2023-04-25T05:44:30.762Z,87617.00
2023-04-25T05:45:30.720Z,87613.00
2023-04-25T05:46:30.812Z,87611.00
2023-04-25T05:47:30.722Z,87611.00
2023-04-25T05:48:30.665Z,87605.00
2023-04-25T05:49:30.710Z,87605.00
2023-04-25T05:50:30.666Z,87609.00
2023-04-25T05:51:30.609Z,87611.00
2023-04-25T05:52:30.599Z,87611.00
2023-04-25T05:53:30.570Z,87613.00
2023-04-25T05:54:30.553Z,87615.00
2023-04-25T05:55:30.548Z,87613.00
2023-04-25T05:56:30.600Z,87613.00
2023-04-25T05:57:30.496Z,87615.00
2023-04-25T05:58:30.479Z,87615.00
2023-04-25T05:59:30.461Z,87617.00
2023-04-25T06:00:30.498Z,87615.00
2023-04-25T06:01:30.435Z,87615.00
2023-04-25T06:02:30.504Z,87617.00
2023-04-25T06:03:30.496Z,87615.00
2023-04-25T06:04:30.638Z,87617.00
2023-04-25T06:05:30.470Z,87615.00
2023-04-25T06:06:30.322Z,87615.00
2023-04-25T06:07:30.321Z,87611.00
2023-04-25T06:08:30.294Z,87609.00
2023-04-25T06:09:30.252Z,87611.00
2023-04-25T06:10:30.317Z,87615.00
2023-04-25T06:11:30.909Z,87609.00
2023-04-25T06:12:30.392Z,87607.00
2023-04-25T06:13:30.213Z,87609.00
2023-04-25T06:14:30.165Z,87607.00
2023-04-25T06:15:30.127Z,87605.00
2023-04-25T06:16:30.243Z,87605.00
2023-04-25T06:17:30.088Z,87597.00
2023-04-25T06:18:30.064Z,87593.00
2023-04-25T06:19:30.077Z,87589.00
2023-04-25T06:20:30.055Z,87589.00
2023-04-25T06:21:29.967Z,87587.00
2023-04-25T06:22:29.963Z,87583.00
2023-04-25T06:23:30.063Z,87580.00
2023-04-25T06:24:29.934Z,87578.00
2023-04-25T06:25:30.400Z,87576.00
2023-04-25T06:26:29.871Z,87574.00
2023-04-25T06:27:29.834Z,87572.00
2023-04-25T06:28:29.877Z,87572.00
2023-04-25T06:29:29.819Z,87566.00
2023-04-25T06:30:29.879Z,87566.00
2023-04-25T06:31:29.920Z,87564.00
2023-04-25T06:32:29.797Z,87564.00
2023-04-25T06:33:29.714Z,87560.00
2023-04-25T06:34:29.651Z,87560.00
2023-04-25T06:35:29.657Z,87558.00
2023-04-25T06:36:29.617Z,87558.00
2023-04-25T06:37:29.652Z,87556.00
2023-04-25T06:38:29.582Z,87554.00
2023-04-25T06:39:29.552Z,87554.00
2023-04-25T06:40:29.554Z,87554.00
2023-04-25T06:41:29.568Z,87552.00
2023-04-25T06:42:29.594Z,87550.00
2023-04-25T06:43:29.561Z,87548.00
2023-04-25T06:44:29.531Z,87548.00
2023-04-25T06:45:29.571Z,87544.00
2023-04-25T06:46:29.656Z,87540.00
2023-04-25T06:47:29.662Z,87540.00
2023-04-25T06:48:29.685Z,87544.00
2023-04-25T06:49:29.766Z,87544.00
2023-04-25T06:50:29.749Z,87542.00
2023-04-25T06:51:29.812Z,87538.00
2023-04-25T06:52:30.955Z,87538.00
2023-04-25T06:53:29.746Z,87536.00
2023-04-25T06:54:29.723Z,87530.00
2023-04-25T06:55:29.811Z,87530.00
2023-04-25T06:56:29.683Z,87532.00
2023-04-25T06:57:29.647Z,87530.00
2023-04-25T06:58:29.648Z,87530.00
2023-04-25T06:59:29.621Z,87532.00
2023-04-25T07:00:29.661Z,87530.00
2023-04-25T07:01:29.929Z,87530.00
2023-04-25T07:02:29.916Z,87528.00
2023-04-25T07:03:30.052Z,87532.00
2023-04-25T07:04:29.771Z,87530.00
2023-04-25T07:05:29.582Z,87528.00
2023-04-25T07:06:29.589Z,87530.00
2023-04-25T07:07:29.524Z,87525.00
2023-04-25T07:08:29.532Z,87526.00
2023-04-25T07:09:29.478Z,87525.00
2023-04-25T07:10:29.434Z,87523.00
2023-04-25T07:11:29.438Z,87525.00
2023-04-25T07:12:29.379Z,87523.00
2023-04-25T07:13:29.368Z,87521.00
2023-04-25T07:14:29.338Z,87525.00
2023-04-25T07:15:29.325Z,87525.00
2023-04-25T07:16:29.297Z,87528.00
2023-04-25T07:17:29.298Z,87526.00
2023-04-25T07:18:29.249Z,87528.00
2023-04-25T07:19:29.215Z,87526.00
2023-04-25T07:20:29.184Z,87528.00
2023-04-25T07:21:29.234Z,87530.00
2023-04-25T07:22:29.195Z,87530.00
2023-04-25T07:23:29.189Z,87530.00
2023-04-25T07:24:29.191Z,87532.00
2023-04-25T07:25:29.284Z,87530.00
2023-04-25T07:26:29.206Z,87526.00
2023-04-25T07:27:29.225Z,87525.00
2023-04-25T07:28:29.190Z,87519.00
2023-04-25T07:29:29.200Z,87515.00
2023-04-25T07:30:29.235Z,87513.00
2023-04-25T07:31:29.252Z,87513.00
2023-04-25T07:32:29.298Z,87513.00
2023-04-25T07:33:29.232Z,87509.00
2023-04-25T07:34:29.300Z,87511.00
2023-04-25T07:35:29.273Z,87511.00
2023-04-25T07:36:29.239Z,87515.00
2023-04-25T07:37:29.265Z,87511.00
2023-04-25T07:38:29.274Z,87517.00
2023-04-25T07:39:29.191Z,87517.00
2023-04-25T07:40:29.159Z,87515.00
2023-04-25T07:41:29.141Z,87515.00
2023-04-25T07:42:29.090Z,87519.00
2023-04-25T07:43:29.147Z,87517.00
2023-04-25T07:44:29.095Z,87517.00
2023-04-25T07:45:29.023Z,87521.00
2023-04-25T07:46:28.998Z,87515.00
2023-04-25T07:47:28.979Z,87519.00
2023-04-25T07:48:28.903Z,87519.00
2023-04-25T07:49:28.856Z,87523.00
2023-04-25T07:50:28.899Z,87525.00
2023-04-25T07:51:28.751Z,87521.00
2023-04-25T07:52:28.874Z,87525.00
2023-04-25T07:53:28.749Z,87526.00
2023-04-25T07:54:28.708Z,87526.00
2023-04-25T07:55:28.680Z,87525.00
2023-04-25T07:56:31.780Z,87525.00
2023-04-25T07:57:29.574Z,87526.00
2023-04-25T07:58:28.588Z,87525.00
2023-04-25T07:59:30.208Z,87526.00
2023-04-25T08:00:28.485Z,87530.00
2023-04-25T08:01:28.524Z,87532.00
2023-04-25T08:02:28.482Z,87532.00
2023-04-25T08:03:28.608Z,87538.00
2023-04-25T08:04:28.652Z,87534.00
2023-04-25T08:05:28.390Z,87534.00
2023-04-25T08:06:28.619Z,87534.00
2023-04-25T08:07:28.282Z,87532.00
2023-04-25T08:08:28.249Z,87534.00
2023-04-25T08:09:28.221Z,87534.00
2023-04-25T08:10:28.189Z,87536.00
2023-04-25T08:11:28.142Z,87534.00
2023-04-25T08:12:28.166Z,87534.00
2023-04-25T08:13:28.152Z,87536.00
2023-04-25T08:14:28.082Z,87540.00
2023-04-25T08:15:28.045Z,87542.00
2023-04-25T08:16:28.181Z,87542.00
2023-04-25T08:17:27.973Z,87546.00
2023-04-25T08:18:28.072Z,87542.00
2023-04-25T08:19:27.937Z,87544.00
2023-04-25T08:20:27.947Z,87546.00
2023-04-25T08:21:27.895Z,87542.00
2023-04-25T08:22:27.841Z,87542.00
2023-04-25T08:23:27.813Z,87542.00
2023-04-25T08:24:27.778Z,87540.00
2023-04-25T08:25:27.857Z,87542.00
2023-04-25T08:26:27.771Z,87542.00
2023-04-25T08:27:27.716Z,87542.00
2023-04-25T08:28:27.765Z,87540.00
2023-04-25T08:29:27.692Z,87542.00
2023-04-25T08:30:27.695Z,87542.00
2023-04-25T08:31:27.663Z,87542.00
2023-04-25T08:32:29.072Z,87540.00
2023-04-25T08:33:27.638Z,87538.00
2023-04-25T08:34:27.558Z,87538.00
2023-04-25T08:35:27.589Z,87536.00
2023-04-25T08:36:38.521Z,87540.00
2023-04-25T08:37:28.473Z,87540.00
2023-04-25T08:38:27.437Z,87542.00
2023-04-25T08:39:27.456Z,87542.00
2023-04-25T08:40:27.397Z,87546.00
2023-04-25T08:41:27.363Z,87546.00
2023-04-25T08:42:27.364Z,87542.00
2023-04-25T08:43:27.433Z,87546.00
2023-04-25T08:44:27.340Z,87550.00
2023-04-25T08:45:27.297Z,87550.00
2023-04-25T08:46:27.282Z,87548.00
2023-04-25T08:47:27.266Z,87548.00
2023-04-25T08:48:27.244Z,87544.00
2023-04-25T08:49:27.275Z,87542.00
2023-04-25T08:50:27.359Z,87542.00
2023-04-25T08:51:27.237Z,87548.00
2023-04-25T08:52:27.253Z,87548.00
2023-04-25T08:53:28.253Z,87550.00
2023-04-25T08:54:34.236Z,87546.00
2023-04-25T08:55:28.406Z,87546.00
2023-04-25T08:56:28.443Z,87548.00
2023-04-25T08:57:27.180Z,87548.00
2023-04-25T08:58:27.118Z,87546.00
2023-04-25T08:59:27.101Z,87550.00
2023-04-25T09:00:27.045Z,87548.00
2023-04-25T09:01:27.101Z,87546.00
2023-04-25T09:02:27.074Z,87546.00
2023-04-25T09:03:27.171Z,87550.00
2023-04-25T09:04:27.095Z,87548.00
2023-04-25T09:05:27.088Z,87548.00
2023-04-25T09:06:26.898Z,87552.00
2023-04-25T09:07:26.881Z,87550.00
2023-04-25T09:08:26.825Z,87546.00
2023-04-25T09:09:26.823Z,87546.00
2023-04-25T09:10:26.742Z,87548.00
2023-04-25T09:11:26.715Z,87546.00
2023-04-25T09:12:26.691Z,87548.00
2023-04-25T09:13:26.611Z,87546.00
2023-04-25T09:14:26.595Z,87550.00
2023-04-25T09:15:26.554Z,87552.00
2023-04-25T09:16:26.592Z,87554.00
2023-04-25T09:17:26.542Z,87552.00
2023-04-25T09:18:30.041Z,87554.00
2023-04-25T09:19:38.896Z,87556.00
2023-04-25T09:20:27.384Z,87554.00
2023-04-25T09:21:26.359Z,87556.00
2023-04-25T09:22:26.333Z,87554.00
2023-04-25T09:23:26.293Z,87552.00
2023-04-25T09:24:26.259Z,87554.00
2023-04-25T09:25:26.245Z,87554.00
2023-04-25T09:26:26.190Z,87558.00
2023-04-25T09:27:26.358Z,87554.00
2023-04-25T09:28:28.294Z,87554.00
2023-04-25T09:29:26.239Z,87552.00
2023-04-25T09:30:26.270Z,87556.00
2023-04-25T09:31:26.262Z,87554.00
2023-04-25T09:32:26.313Z,87556.00
2023-04-25T09:33:26.080Z,87554.00
2023-04-25T09:34:26.068Z,87554.00
2023-04-25T09:35:26.059Z,87554.00
2023-04-25T09:36:25.977Z,87558.00
2023-04-25T09:37:25.983Z,87558.00
2023-04-25T09:38:25.982Z,87562.00
2023-04-25T09:39:25.951Z,87558.00
2023-04-25T09:40:25.838Z,87564.00
2023-04-25T09:41:25.807Z,87568.00
2023-04-25T09:42:25.771Z,87568.00
2023-04-25T09:43:25.760Z,87572.00
2023-04-25T09:44:25.774Z,87568.00
2023-04-25T09:45:25.663Z,87570.00
2023-04-25T09:46:25.696Z,87570.00
2023-04-25T09:47:25.598Z,87576.00
2023-04-25T09:48:25.551Z,87570.00
2023-04-25T09:49:25.687Z,87576.00
2023-04-25T09:50:25.483Z,87576.00
2023-04-25T09:51:25.500Z,87574.00
2023-04-25T09:52:26.423Z,87576.00
2023-04-25T09:53:25.421Z,87572.00
2023-04-25T09:54:25.418Z,87568.00
2023-04-25T09:55:25.402Z,87570.00
2023-04-25T09:56:25.487Z,87568.00
2023-04-25T09:57:25.406Z,87568.00
2023-04-25T09:58:25.414Z,87566.00
2023-04-25T09:59:27.323Z,87566.00
2023-04-25T10:00:25.497Z,87568.00
2023-04-25T10:01:25.266Z,87564.00
2023-04-25T10:02:25.208Z,87566.00
2023-04-25T10:03:25.187Z,87560.00
2023-04-25T10:04:25.459Z,87560.00
2023-04-25T10:05:26.056Z,87558.00
2023-04-25T10:06:25.049Z,87556.00
2023-04-25T10:07:25.017Z,87556.00
2023-04-25T10:08:25.240Z,87556.00
2023-04-25T10:09:24.971Z,87552.00
2023-04-25T10:10:24.929Z,87550.00
2023-04-25T10:11:24.928Z,87550.00
2023-04-25T10:12:24.876Z,87546.00
2023-04-25T10:13:24.845Z,87546.00
2023-04-25T10:14:24.949Z,87548.00
2023-04-25T10:15:24.869Z,87548.00
2023-04-25T10:16:24.978Z,87552.00
2023-04-25T10:17:24.852Z,87550.00
2023-04-25T10:18:24.919Z,87548.00
2023-04-25T10:19:24.837Z,87552.00
2023-04-25T10:20:24.734Z,87550.00
2023-04-25T10:21:24.684Z,87550.00
2023-04-25T10:22:24.661Z,87554.00
2023-04-25T10:23:24.620Z,87554.00
2023-04-25T10:24:24.614Z,87554.00
2023-04-25T10:25:24.595Z,87554.00
2023-04-25T10:26:24.551Z,87556.00
2023-04-25T10:27:24.526Z,87562.00
2023-04-25T10:28:24.545Z,87558.00
2023-04-25T10:29:24.511Z,87558.00
2023-04-25T10:30:24.475Z,87560.00
2023-04-25T10:31:24.519Z,87560.00
2023-04-25T10:32:24.445Z,87558.00
2023-04-25T10:33:24.392Z,87564.00
2023-04-25T10:34:24.360Z,87558.00
2023-04-25T10:35:24.328Z,87562.00
2023-04-25T10:36:24.365Z,87558.00
2023-04-25T10:37:24.268Z,87564.00
2023-04-25T10:38:24.243Z,87566.00
2023-04-25T10:39:24.258Z,87562.00
2023-04-25T10:40:24.189Z,87562.00
2023-04-25T10:41:24.157Z,87564.00
2023-04-25T10:42:24.234Z,87568.00
2023-04-25T10:43:24.305Z,87564.00
2023-04-25T10:44:24.170Z,87566.00
2023-04-25T10:45:24.189Z,87566.00
2023-04-25T10:46:24.283Z,87564.00
2023-04-25T10:47:24.185Z,87566.00
2023-04-25T10:48:24.137Z,87568.00
2023-04-25T10:49:24.160Z,87572.00
2023-04-25T10:50:24.091Z,87572.00
2023-04-25T10:51:24.107Z,87578.00
2023-04-25T10:52:24.047Z,87580.00
2023-04-25T10:53:24.015Z,87578.00
2023-04-25T10:54:24.012Z,87576.00
2023-04-25T10:55:24.074Z,87576.00
2023-04-25T10:56:23.959Z,87576.00
2023-04-25T10:57:23.917Z,87578.00
2023-04-25T10:58:23.899Z,87576.00
2023-04-25T10:59:23.885Z,87576.00
2023-04-25T11:00:25.753Z,87580.00
2023-04-25T11:01:23.926Z,87574.00
2023-04-25T11:02:23.920Z,87572.00
2023-04-25T11:03:23.964Z,87572.00
2023-04-25T11:04:24.114Z,87572.00
2023-04-25T11:05:23.787Z,87572.00
2023-04-25T11:06:23.721Z,87568.00
2023-04-25T11:07:23.696Z,87564.00
2023-04-25T11:08:23.814Z,87558.00
2023-04-25T11:09:23.654Z,87564.00
2023-04-25T11:10:23.641Z,87562.00
2023-04-25T11:11:23.615Z,87560.00
2023-04-25T11:12:23.607Z,87558.00
2023-04-25T11:13:23.535Z,87558.00
2023-04-25T11:14:23.563Z,87550.00
2023-04-25T11:15:23.485Z,87546.00
2023-04-25T11:16:28.264Z,87548.00
2023-04-25T11:17:24.485Z,87548.00
2023-04-25T11:18:23.499Z,87544.00
2023-04-25T11:19:23.405Z,87542.00
2023-04-25T11:20:23.374Z,87540.00
2023-04-25T11:21:23.368Z,87538.00
2023-04-25T11:22:23.338Z,87532.00
2023-04-25T11:23:23.314Z,87536.00
2023-04-25T11:24:23.308Z,87525.00
2023-04-25T11:25:23.258Z,87523.00
2023-04-25T11:26:23.249Z,87521.00
2023-04-25T11:27:23.254Z,87521.00
2023-04-25T11:28:23.680Z,87521.00
2023-04-25T11:29:23.180Z,87523.00
2023-04-25T11:30:23.165Z,87517.00
2023-04-25T11:31:23.183Z,87521.00
2023-04-25T11:32:23.785Z,87523.00
2023-04-25T11:33:23.149Z,87526.00
2023-04-25T11:34:23.050Z,87526.00
2023-04-25T11:35:23.110Z,87526.00
2023-04-25T11:36:22.990Z,87519.00
2023-04-25T11:37:22.965Z,87521.00
2023-04-25T11:38:24.777Z,87523.00
2023-04-25T11:39:22.939Z,87519.00
2023-04-25T11:40:22.924Z,87525.00
2023-04-25T11:41:22.867Z,87519.00
2023-04-25T11:42:22.870Z,87517.00
2023-04-25T11:43:22.877Z,87523.00
2023-04-25T11:44:22.804Z,87528.00
2023-04-25T11:45:22.788Z,87521.00